createdAt,value
2023-01-30T00:01:13.725Z,0.87
2023-01-30T00:03:40.016Z,1.10
2023-01-30T00:06:06.322Z,1.24
2023-01-30T00:08:32.625Z,0.85
2023-01-30T00:10:58.928Z,0.91
2023-01-30T00:13:25.229Z,0.52
2023-01-30T00:15:51.545Z,0.72
2023-01-30T00:18:17.838Z,0.57
2023-01-30T00:20:44.147Z,0.48
2023-01-30T00:23:10.452Z,0.68
2023-01-30T00:25:36.929Z,0.93
2023-01-30T00:28:03.295Z,0.75
2023-01-30T00:30:29.631Z,0.37
2023-01-30T00:32:56.039Z,0.45
2023-01-30T00:35:22.353Z,0.53
2023-01-30T00:37:48.656Z,0.11
2023-01-30T00:40:15.039Z,0.33
2023-01-30T00:42:41.380Z,0.56
2023-01-30T00:45:07.675Z,0.39
2023-01-30T00:47:33.961Z,0.41
2023-01-30T00:50:00.273Z,0.32
2023-01-30T00:52:26.574Z,0.76
2023-01-30T00:54:52.857Z,0.15
2023-01-30T00:57:19.171Z,0.40
2023-01-30T00:59:45.474Z,0.49
2023-01-30T01:02:11.783Z,0.56
2023-01-30T01:04:38.150Z,0.37
2023-01-30T01:07:04.438Z,0.49
2023-01-30T01:09:30.731Z,0.43
2023-01-30T01:11:57.045Z,0.25
2023-01-30T01:14:23.340Z,-0.40
2023-01-30T01:16:49.761Z,-0.35
2023-01-30T01:19:16.376Z,0.21
2023-01-30T01:21:42.696Z,0.37
2023-01-30T01:24:08.975Z,0.37
2023-01-30T01:26:35.345Z,-0.45
2023-01-30T01:29:01.669Z,-0.42
2023-01-30T01:31:28.056Z,-0.25
2023-01-30T01:33:54.420Z,-0.24
2023-01-30T01:36:49.797Z,-0.02
2023-01-30T01:39:06.966Z,0.03
2023-01-30T01:41:33.262Z,0.17
2023-01-30T01:43:59.577Z,0.07
2023-01-30T01:46:25.887Z,-0.50
2023-01-30T01:48:52.167Z,-0.04
2023-01-30T01:51:18.453Z,0.05
2023-01-30T01:53:44.754Z,-0.44
2023-01-30T01:56:11.048Z,-0.18
2023-01-30T01:58:37.336Z,0.15
2023-01-30T02:01:03.728Z,-0.30
2023-01-30T02:03:30.079Z,-0.64
2023-01-30T02:05:56.370Z,-0.76
2023-01-30T02:08:22.747Z,-0.38
2023-01-30T02:10:49.052Z,-0.45
2023-01-30T02:13:15.337Z,0.12
2023-01-30T02:15:41.641Z,0.13
2023-01-30T02:18:07.929Z,-0.18
2023-01-30T02:20:34.223Z,-0.03
2023-01-30T02:23:00.525Z,-0.33
2023-01-30T02:25:26.818Z,-0.09
2023-01-30T02:27:53.097Z,-0.03
2023-01-30T02:30:19.449Z,-0.54
2023-01-30T02:32:45.738Z,-0.58
2023-01-30T02:35:12.033Z,-0.15
2023-01-30T02:37:38.405Z,-0.22
2023-01-30T02:40:04.702Z,0.06
2023-01-30T02:42:30.991Z,-0.12
2023-01-30T02:44:57.302Z,-0.05
2023-01-30T02:47:23.590Z,-0.03
2023-01-30T02:49:49.919Z,-0.39
2023-01-30T02:52:17.498Z,-0.46
2023-01-30T02:54:44.745Z,-0.36
2023-01-30T02:57:15.563Z,-0.40
2023-01-30T02:59:41.869Z,-0.68
2023-01-30T03:02:08.206Z,-0.68
2023-01-30T03:04:34.517Z,-0.78
2023-01-30T03:07:00.815Z,-0.58
2023-01-30T03:09:27.104Z,-0.43
2023-01-30T03:11:53.431Z,-0.25
2023-01-30T03:14:19.870Z,-0.35
2023-01-30T03:16:46.173Z,-0.41
2023-01-30T03:19:12.468Z,-0.28
2023-01-30T03:21:38.768Z,-0.03
2023-01-30T03:24:05.061Z,-0.18
2023-01-30T03:26:31.367Z,-0.19
2023-01-30T03:28:57.672Z,-0.25
2023-01-30T03:31:24.067Z,-0.47
2023-01-30T03:33:50.470Z,-0.09
2023-01-30T03:36:16.817Z,-0.25
2023-01-30T03:38:43.096Z,-0.42
2023-01-30T03:41:09.408Z,-0.80
2023-01-30T03:43:35.730Z,-0.73
2023-01-30T03:46:02.042Z,-0.49
2023-01-30T03:48:28.434Z,-0.42
2023-01-30T03:50:54.747Z,-0.33
2023-01-30T03:53:21.073Z,-0.51
2023-01-30T03:55:47.359Z,-0.73
2023-01-30T03:58:13.669Z,-0.63
2023-01-30T04:00:39.951Z,-0.70
2023-01-30T04:03:06.238Z,-0.51
2023-01-30T04:05:32.550Z,-0.41
2023-01-30T04:07:58.926Z,-0.16
2023-01-30T04:10:25.217Z,-0.28
2023-01-30T04:12:56.059Z,-0.22
2023-01-30T04:15:22.364Z,-0.39
2023-01-30T04:17:48.663Z,-0.66
2023-01-30T04:20:15.006Z,-0.54
2023-01-30T04:22:41.347Z,-0.57
2023-01-30T04:25:07.656Z,-0.80
2023-01-30T04:27:33.964Z,-0.63
2023-01-30T04:30:00.253Z,-0.51
2023-01-30T04:32:26.544Z,-0.21
2023-01-30T04:34:52.854Z,-0.21
2023-01-30T04:37:19.170Z,-0.57
2023-01-30T04:39:45.463Z,-0.25
2023-01-30T04:42:11.800Z,-0.48
2023-01-30T04:44:38.097Z,-0.56
2023-01-30T04:47:04.380Z,-0.80
2023-01-30T04:49:30.704Z,-0.51
2023-01-30T04:51:56.993Z,-0.62
2023-01-30T04:54:23.280Z,-0.22
2023-01-30T04:56:49.589Z,-0.38
2023-01-30T04:59:15.953Z,-0.61
2023-01-30T05:01:42.362Z,-0.42
2023-01-30T05:04:08.697Z,-0.48
2023-01-30T05:06:34.978Z,-0.36
2023-01-30T05:09:01.286Z,-0.51
2023-01-30T05:11:27.596Z,-0.74
2023-01-30T05:13:53.922Z,-0.39
2023-01-30T05:16:20.218Z,-0.62
2023-01-30T05:18:46.578Z,-0.63
2023-01-30T05:21:12.861Z,-0.44
2023-01-30T05:23:39.155Z,-0.59
2023-01-30T05:26:05.495Z,-0.66
2023-01-30T05:28:31.784Z,-0.72
2023-01-30T05:30:58.130Z,-0.85
2023-01-30T05:33:24.497Z,-0.40
2023-01-30T05:35:50.794Z,-0.29
2023-01-30T05:38:17.198Z,-0.60
2023-01-30T05:40:43.499Z,-0.71
2023-01-30T05:43:09.807Z,-0.71
2023-01-30T05:45:36.088Z,-0.82
2023-01-30T05:48:02.412Z,-0.93
2023-01-30T05:50:28.708Z,-1.10
2023-01-30T05:52:55.022Z,-0.89
2023-01-30T05:55:21.373Z,-0.88
2023-01-30T05:57:47.697Z,-1.00
2023-01-30T06:00:13.990Z,-1.15
2023-01-30T06:02:40.329Z,-1.16
2023-01-30T06:05:06.626Z,-0.79
2023-01-30T06:07:32.917Z,-0.77
2023-01-30T06:09:59.232Z,-0.66
2023-01-30T06:12:25.524Z,-0.78
2023-01-30T06:14:51.835Z,-0.75
2023-01-30T06:17:18.132Z,-1.01
2023-01-30T06:19:44.419Z,-0.77
2023-01-30T06:22:10.850Z,-0.72
2023-01-30T06:24:37.157Z,-0.84
2023-01-30T06:27:03.452Z,-0.76
2023-01-30T06:29:29.751Z,-0.57
2023-01-30T06:31:56.095Z,-0.71
2023-01-30T06:34:22.384Z,-0.77
2023-01-30T06:36:48.683Z,-1.09
2023-01-30T06:39:15.022Z,-1.03
2023-01-30T06:41:41.313Z,-0.76
2023-01-30T06:44:07.615Z,-1.22
2023-01-30T06:46:33.963Z,-0.95
2023-01-30T06:49:00.266Z,-1.05
2023-01-30T06:51:26.551Z,-0.72
2023-01-30T06:53:53.424Z,-0.69
2023-01-30T06:56:19.745Z,-0.76
2023-01-30T06:58:46.030Z,-1.17
2023-01-30T07:01:12.337Z,-1.17
2023-01-30T07:03:38.624Z,-1.38
2023-01-30T07:06:04.910Z,-1.22
2023-01-30T07:08:31.211Z,-1.15
2023-01-30T07:10:57.545Z,-1.03
2023-01-30T07:13:23.830Z,-0.73
2023-01-30T07:15:50.148Z,-0.70
2023-01-30T07:18:16.486Z,-0.98
2023-01-30T07:20:42.777Z,-0.66
2023-01-30T07:23:09.089Z,-0.51
2023-01-30T07:25:35.392Z,-0.67
2023-01-30T07:28:01.680Z,-0.61
2023-01-30T07:30:28.009Z,-0.42
2023-01-30T07:32:54.335Z,-0.29
2023-01-30T07:35:20.933Z,-0.47
2023-01-30T07:37:47.447Z,-0.39
2023-01-30T07:40:13.740Z,-0.29
2023-01-30T07:42:40.049Z,-0.49
2023-01-30T07:45:06.364Z,-0.24
2023-01-30T07:47:32.669Z,-0.44
2023-01-30T07:49:58.966Z,-0.13
2023-01-30T07:52:25.283Z,-0.05
2023-01-30T07:54:51.566Z,0.14
2023-01-30T07:57:17.862Z,-0.01
2023-01-30T07:59:44.157Z,0.21
2023-01-30T08:02:10.445Z,0.36
2023-01-30T08:04:36.813Z,0.50
2023-01-30T08:07:03.140Z,0.73
2023-01-30T08:09:29.431Z,0.94
2023-01-30T08:11:55.724Z,0.85
2023-01-30T08:14:22.041Z,1.34
2023-01-30T08:16:48.377Z,1.32
2023-01-30T08:19:14.684Z,1.52
2023-01-30T08:21:40.986Z,1.66
2023-01-30T08:24:07.291Z,1.85
2023-01-30T08:26:33.625Z,1.88
2023-01-30T08:29:00.005Z,1.71
2023-01-30T08:31:26.302Z,1.22
2023-01-30T08:33:52.619Z,1.73
2023-01-30T08:36:18.946Z,1.57
2023-01-30T08:38:45.269Z,1.27
2023-01-30T08:41:11.558Z,1.61
2023-01-30T08:43:37.900Z,1.84
2023-01-30T08:46:04.279Z,2.20
2023-01-30T08:48:43.344Z,2.66
2023-01-30T08:51:15.098Z,3.11
2023-01-30T08:53:41.387Z,3.17
2023-01-30T08:56:07.679Z,2.97
2023-01-30T08:58:33.979Z,3.04
2023-01-30T09:01:00.277Z,3.13
2023-01-30T09:03:26.569Z,3.04
2023-01-30T09:05:52.880Z,2.97
2023-01-30T09:08:19.175Z,3.38
2023-01-30T09:10:45.506Z,3.85
2023-01-30T09:13:11.838Z,3.80
2023-01-30T09:15:38.132Z,3.93
2023-01-30T09:18:04.425Z,4.14
2023-01-30T09:20:30.734Z,3.83
2023-01-30T09:22:57.043Z,4.34
2023-01-30T09:25:23.328Z,4.45
2023-01-30T09:27:49.638Z,4.32
2023-01-30T09:30:16.208Z,5.03
2023-01-30T09:32:42.647Z,4.81
2023-01-30T09:35:08.970Z,4.77
2023-01-30T09:37:35.262Z,4.95
2023-01-30T09:40:01.618Z,4.77
2023-01-30T09:42:27.927Z,4.75
2023-01-30T09:44:54.217Z,5.16
2023-01-30T09:47:20.509Z,5.64
2023-01-30T09:49:46.852Z,5.92
2023-01-30T09:52:13.283Z,6.13
2023-01-30T09:54:39.570Z,5.87
2023-01-30T09:57:05.876Z,5.77
2023-01-30T09:59:32.171Z,5.80
2023-01-30T10:01:58.457Z,5.68
2023-01-30T10:04:24.824Z,5.66
2023-01-30T10:06:51.141Z,4.99
2023-01-30T10:09:17.439Z,5.61
2023-01-30T10:11:43.743Z,6.09
2023-01-30T10:14:10.071Z,5.57
2023-01-30T10:16:36.388Z,5.77
2023-01-30T10:19:02.729Z,5.82
2023-01-30T10:21:29.036Z,5.77
2023-01-30T10:23:55.423Z,6.03
2023-01-30T10:26:21.760Z,5.87
2023-01-30T10:28:55.595Z,5.99
2023-01-30T10:31:25.287Z,5.91
2023-01-30T10:33:51.642Z,6.39
2023-01-30T10:36:17.964Z,5.92
2023-01-30T10:38:44.356Z,5.98
2023-01-30T10:41:10.654Z,6.05
2023-01-30T10:43:36.945Z,6.22
2023-01-30T10:46:03.277Z,6.00
2023-01-30T10:48:42.561Z,5.94
2023-01-30T10:51:12.163Z,5.45
2023-01-30T10:53:38.453Z,4.92
2023-01-30T10:56:04.754Z,4.82
2023-01-30T10:58:31.067Z,4.70
2023-01-30T11:00:57.582Z,5.39
2023-01-30T11:03:24.040Z,5.62
2023-01-30T11:05:50.375Z,5.96
2023-01-30T11:08:16.668Z,5.25
2023-01-30T11:10:42.976Z,4.97
2023-01-30T11:13:09.684Z,5.10
2023-01-30T11:15:35.980Z,5.29
2023-01-30T11:18:27.263Z,5.59
2023-01-30T11:20:48.528Z,5.95
2023-01-30T11:23:14.811Z,5.99
2023-01-30T11:25:41.115Z,6.30
2023-01-30T11:28:07.415Z,6.55
2023-01-30T11:30:33.706Z,6.44
2023-01-30T11:33:00.132Z,6.81
2023-01-30T11:35:26.456Z,6.76
2023-01-30T11:37:52.764Z,6.45
2023-01-30T11:40:19.627Z,6.71
2023-01-30T11:42:46.198Z,6.89
2023-01-30T11:45:17.751Z,6.78
2023-01-30T11:47:50.783Z,6.90
2023-01-30T11:50:27.379Z,7.07
2023-01-30T11:52:56.009Z,7.18
2023-01-30T11:55:22.290Z,7.33
2023-01-30T11:57:48.628Z,6.92
2023-01-30T12:00:14.930Z,7.29
2023-01-30T12:02:41.522Z,7.91
2023-01-30T12:05:07.825Z,7.40
2023-01-30T12:07:34.116Z,7.45
2023-01-30T12:10:00.428Z,7.29
2023-01-30T12:12:26.739Z,7.20
2023-01-30T12:14:53.022Z,6.92
2023-01-30T12:17:19.302Z,6.87
2023-01-30T12:19:45.603Z,6.83
2023-01-30T12:22:11.896Z,6.82
2023-01-30T12:24:38.195Z,6.72
2023-01-30T12:27:04.501Z,6.51
2023-01-30T12:29:30.806Z,6.50
2023-01-30T12:31:57.094Z,6.33
2023-01-30T12:34:27.069Z,6.38
2023-01-30T12:36:54.005Z,6.70
2023-01-30T12:39:20.311Z,7.23
2023-01-30T12:41:46.627Z,7.47
2023-01-30T12:44:12.915Z,6.75
2023-01-30T12:46:39.204Z,6.34
2023-01-30T12:49:11.669Z,6.67
2023-01-30T12:51:38.317Z,6.41
2023-01-30T12:54:04.608Z,6.23
2023-01-30T12:56:30.921Z,6.46
2023-01-30T12:58:57.252Z,6.60
2023-01-30T13:01:23.569Z,7.31
2023-01-30T13:03:49.955Z,7.41
2023-01-30T13:06:16.253Z,7.61
2023-01-30T13:08:42.671Z,7.86
2023-01-30T13:11:08.996Z,7.89
2023-01-30T13:13:35.308Z,7.98
2023-01-30T13:16:01.701Z,7.68
2023-01-30T13:18:28.107Z,7.05
2023-01-30T13:20:54.395Z,7.11
2023-01-30T13:23:20.690Z,7.46
2023-01-30T13:25:46.992Z,7.38
2023-01-30T13:28:13.306Z,7.29
2023-01-30T13:30:39.602Z,7.04
2023-01-30T13:33:05.912Z,6.86
2023-01-30T13:35:32.192Z,7.09
2023-01-30T13:37:58.479Z,7.21
2023-01-30T13:40:24.795Z,7.19
2023-01-30T13:42:51.085Z,7.11
2023-01-30T13:45:18.571Z,7.02
2023-01-30T13:47:44.927Z,6.67
2023-01-30T13:50:11.281Z,6.94
2023-01-30T13:52:37.613Z,6.60
2023-01-30T13:55:04.011Z,7.12
2023-01-30T13:57:30.322Z,6.81
2023-01-30T13:59:56.627Z,6.90
2023-01-30T14:02:23.023Z,7.09
2023-01-30T14:04:49.339Z,7.32
2023-01-30T14:07:15.639Z,7.17
2023-01-30T14:09:41.976Z,6.87
2023-01-30T14:12:08.345Z,7.06
2023-01-30T14:14:34.771Z,7.09
2023-01-30T14:17:01.105Z,7.24
2023-01-30T14:19:27.455Z,7.54
2023-01-30T14:21:53.799Z,7.21
2023-01-30T14:24:20.104Z,7.10
2023-01-30T14:26:46.475Z,6.91
2023-01-30T14:29:12.784Z,7.10
2023-01-30T14:31:39.146Z,7.23
2023-01-30T14:34:05.485Z,7.43
2023-01-30T14:36:31.783Z,7.59
2023-01-30T14:38:58.094Z,7.01
2023-01-30T14:41:24.770Z,7.18
2023-01-30T14:43:53.254Z,7.01
2023-01-30T14:46:20.337Z,7.12
2023-01-30T14:48:46.689Z,7.24
2023-01-30T14:51:12.976Z,6.87
2023-01-30T14:53:39.831Z,7.06
2023-01-30T14:56:06.125Z,7.31
2023-01-30T14:58:32.432Z,7.07
2023-01-30T15:00:58.784Z,6.89
2023-01-30T15:03:25.101Z,6.69
2023-01-30T15:05:51.391Z,6.82
2023-01-30T15:08:17.702Z,7.14
2023-01-30T15:10:43.994Z,7.19
2023-01-30T15:13:10.285Z,6.94
2023-01-30T15:15:36.629Z,7.05
2023-01-30T15:18:08.410Z,7.33
2023-01-30T15:20:35.085Z,6.99
2023-01-30T15:23:01.400Z,7.33
2023-01-30T15:25:27.691Z,7.09
2023-01-30T15:27:53.995Z,7.04
2023-01-30T15:30:20.611Z,7.26
2023-01-30T15:32:47.119Z,6.97
2023-01-30T15:35:13.457Z,7.15
2023-01-30T15:37:39.787Z,7.20
2023-01-30T15:40:06.204Z,7.01
2023-01-30T15:42:32.500Z,6.88
2023-01-30T15:44:59.045Z,6.78
2023-01-30T15:47:25.405Z,6.33
2023-01-30T15:49:53.018Z,6.37
2023-01-30T15:52:19.334Z,6.31
2023-01-30T15:54:47.783Z,6.41
2023-01-30T15:57:15.131Z,6.58
2023-01-30T15:59:41.442Z,6.60
2023-01-30T16:02:07.834Z,6.56
2023-01-30T16:04:34.199Z,6.70
2023-01-30T16:07:00.523Z,6.80
2023-01-30T16:09:26.814Z,6.58
2023-01-30T16:11:53.105Z,6.68
2023-01-30T16:14:19.438Z,6.51
2023-01-30T16:16:45.761Z,6.77
2023-01-30T16:19:12.112Z,6.40
2023-01-30T16:21:38.425Z,6.38
2023-01-30T16:24:04.719Z,6.35
2023-01-30T16:26:31.125Z,6.51
2023-01-30T16:28:57.472Z,6.47
2023-01-30T16:31:23.880Z,6.39
2023-01-30T16:33:50.227Z,6.58
2023-01-30T16:36:16.546Z,6.57
2023-01-30T16:38:42.841Z,6.34
2023-01-30T16:41:09.132Z,6.43
2023-01-30T16:43:35.533Z,6.77
2023-01-30T16:46:01.935Z,6.30
2023-01-30T16:48:28.336Z,6.71
2023-01-30T16:50:54.639Z,6.87
2023-01-30T16:53:20.940Z,6.96
2023-01-30T16:55:47.335Z,6.52
2023-01-30T16:58:13.732Z,6.67
2023-01-30T17:00:40.082Z,6.82
2023-01-30T17:03:06.448Z,6.72
2023-01-30T17:05:32.786Z,6.83
2023-01-30T17:07:59.079Z,6.94
2023-01-30T17:10:25.384Z,6.68
2023-01-30T17:12:51.702Z,6.50
2023-01-30T17:15:18.276Z,6.53
2023-01-30T17:17:44.908Z,6.39
2023-01-30T17:20:11.251Z,6.84
2023-01-30T17:22:37.564Z,6.60
2023-01-30T17:25:03.865Z,6.63
2023-01-30T17:27:30.180Z,6.83
2023-01-30T17:29:56.477Z,6.49
2023-01-30T17:32:22.765Z,6.56
2023-01-30T17:34:49.067Z,6.38
2023-01-30T17:37:15.377Z,6.86
2023-01-30T17:39:41.671Z,6.49
2023-01-30T17:42:07.993Z,6.08
2023-01-30T17:44:34.327Z,6.39
2023-01-30T17:47:00.622Z,6.35
2023-01-30T17:49:26.940Z,6.66
2023-01-30T17:51:53.272Z,6.57
2023-01-30T17:54:19.555Z,6.49
2023-01-30T17:56:45.857Z,6.72
2023-01-30T17:59:12.144Z,6.84
2023-01-30T18:01:38.597Z,6.23
2023-01-30T18:04:05.769Z,5.94
2023-01-30T18:06:32.084Z,6.49
2023-01-30T18:08:58.403Z,6.77
2023-01-30T18:11:24.720Z,6.45
2023-01-30T18:13:51.019Z,5.74
2023-01-30T18:16:17.530Z,5.98
2023-01-30T18:18:43.841Z,5.75
2023-01-30T18:21:10.124Z,6.27
2023-01-30T18:23:36.420Z,6.56
2023-01-30T18:26:02.775Z,6.29
2023-01-30T18:28:29.125Z,6.59
2023-01-30T18:30:55.535Z,5.90
2023-01-30T18:33:21.865Z,6.25
2023-01-30T18:35:48.156Z,6.46
2023-01-30T18:38:14.463Z,6.39
2023-01-30T18:40:40.774Z,6.31
2023-01-30T18:43:07.084Z,6.03
2023-01-30T18:45:33.375Z,5.84
2023-01-30T18:47:59.672Z,5.84
2023-01-30T18:50:25.959Z,6.36
2023-01-30T18:52:52.251Z,6.23
2023-01-30T18:55:18.568Z,6.15
2023-01-30T18:57:44.875Z,6.37
2023-01-30T19:00:11.170Z,6.26
2023-01-30T19:02:37.547Z,6.00
2023-01-30T19:05:03.866Z,6.21
2023-01-30T19:07:30.212Z,6.45
2023-01-30T19:09:56.522Z,6.45
2023-01-30T19:12:22.972Z,6.58
2023-01-30T19:14:49.363Z,6.30
2023-01-30T19:17:15.671Z,5.94
2023-01-30T19:19:41.954Z,5.80
2023-01-30T19:22:10.607Z,6.00
2023-01-30T19:24:36.910Z,6.28
2023-01-30T19:27:03.202Z,6.25
2023-01-30T19:29:29.493Z,6.23
2023-01-30T19:31:55.917Z,5.92
2023-01-30T19:34:22.284Z,6.10
2023-01-30T19:36:48.569Z,6.22
2023-01-30T19:39:14.874Z,6.12
2023-01-30T19:41:42.331Z,5.49
2023-01-30T19:44:08.621Z,5.63
2023-01-30T19:46:35.026Z,5.98
2023-01-30T19:49:01.351Z,5.55
2023-01-30T19:51:27.646Z,5.99
2023-01-30T19:53:53.980Z,5.73
2023-01-30T19:56:20.262Z,5.20
2023-01-30T19:58:46.533Z,5.20
2023-01-30T20:01:12.844Z,5.04
2023-01-30T20:03:39.135Z,5.93
2023-01-30T20:06:05.424Z,5.32
2023-01-30T20:08:32.929Z,5.84
2023-01-30T20:10:59.384Z,5.92
2023-01-30T20:13:25.676Z,5.27
2023-01-30T20:15:52.061Z,5.26
2023-01-30T20:18:18.388Z,5.74
2023-01-30T20:20:44.811Z,5.20
2023-01-30T20:23:11.117Z,5.30
2023-01-30T20:25:37.493Z,5.44
2023-01-30T20:28:04.708Z,5.48
2023-01-30T20:30:31.015Z,5.45
2023-01-30T20:32:57.302Z,5.71
2023-01-30T20:35:23.608Z,5.31
2023-01-30T20:37:49.967Z,5.39
2023-01-30T20:40:16.277Z,5.31
2023-01-30T20:42:42.556Z,4.15
2023-01-30T20:45:08.884Z,5.14
2023-01-30T20:47:35.175Z,4.45
2023-01-30T20:50:01.592Z,5.12
2023-01-30T20:52:28.077Z,5.17
2023-01-30T20:54:54.381Z,4.61
2023-01-30T20:57:20.891Z,4.67
2023-01-30T20:59:47.199Z,5.13
2023-01-30T21:02:13.498Z,4.99
2023-01-30T21:04:39.772Z,4.85
2023-01-30T21:07:14.524Z,4.64
2023-01-30T21:09:40.814Z,4.49
2023-01-30T21:12:07.118Z,4.30
2023-01-30T21:14:33.408Z,4.81
2023-01-30T21:17:00.330Z,4.67
2023-01-30T21:19:26.690Z,4.39
2023-01-30T21:21:53.091Z,4.69
2023-01-30T21:24:19.386Z,4.83
2023-01-30T21:26:45.770Z,4.75
2023-01-30T21:29:12.090Z,4.79
2023-01-30T21:31:39.001Z,4.69
2023-01-30T21:34:05.478Z,4.46
2023-01-30T21:36:31.764Z,4.66
2023-01-30T21:38:58.055Z,4.56
2023-01-30T21:41:24.408Z,4.96
2023-01-30T21:43:50.699Z,5.08
2023-01-30T21:46:17.025Z,4.47
2023-01-30T21:48:43.379Z,4.81
2023-01-30T21:51:09.660Z,4.90
2023-01-30T21:53:36.436Z,5.23
2023-01-30T21:56:02.832Z,5.03
2023-01-30T21:58:31.321Z,5.34
2023-01-30T22:00:58.328Z,5.00
2023-01-30T22:03:24.694Z,5.32
2023-01-30T22:05:50.980Z,5.38
2023-01-30T22:08:17.280Z,5.29
2023-01-30T22:10:43.601Z,5.30
2023-01-30T22:13:09.937Z,5.25
2023-01-30T22:15:36.323Z,5.22
2023-01-30T22:18:02.642Z,4.76
2023-01-30T22:20:28.932Z,4.97
2023-01-30T22:22:55.227Z,5.37
2023-01-30T22:25:21.858Z,5.16
2023-01-30T22:27:48.362Z,5.28
2023-01-30T22:30:14.653Z,4.82
2023-01-30T22:32:40.966Z,4.75
2023-01-30T22:35:07.256Z,5.10
2023-01-30T22:37:33.541Z,4.80
2023-01-30T22:39:59.912Z,4.86
2023-01-30T22:42:26.477Z,5.30
2023-01-30T22:44:52.779Z,5.06
2023-01-30T22:47:19.190Z,4.96
2023-01-30T22:49:45.526Z,5.01
2023-01-30T22:52:11.819Z,4.66
2023-01-30T22:54:38.245Z,4.36
2023-01-30T22:57:04.591Z,4.26
2023-01-30T22:59:30.893Z,4.52
2023-01-30T23:01:57.212Z,4.00
2023-01-30T23:04:23.511Z,4.47
2023-01-30T23:06:49.804Z,4.64
2023-01-30T23:09:16.140Z,4.62
2023-01-30T23:11:42.470Z,4.40
2023-01-30T23:14:08.754Z,4.73
2023-01-30T23:16:36.926Z,4.73
2023-01-30T23:19:03.256Z,4.23
2023-01-30T23:21:29.545Z,4.01
2023-01-30T23:23:55.846Z,4.40
2023-01-30T23:26:22.164Z,4.33
2023-01-30T23:28:48.539Z,4.68
2023-01-30T23:31:14.914Z,4.83
2023-01-30T23:33:41.243Z,4.64
2023-01-30T23:36:07.548Z,4.37
2023-01-30T23:38:33.863Z,4.72
2023-01-30T23:41:00.169Z,4.85
2023-01-30T23:43:26.460Z,4.72
2023-01-30T23:45:52.802Z,4.31
2023-01-30T23:48:19.115Z,4.41
2023-01-30T23:50:45.394Z,4.40
2023-01-30T23:53:11.736Z,4.38
2023-01-30T23:55:38.650Z,4.30
2023-01-30T23:58:05.091Z,4.21
